createdAt,value
2019-01-28T00:02:02.600Z,0.53
2019-01-28T00:04:33.088Z,0.50
2019-01-28T00:07:03.718Z,0.63
2019-01-28T00:09:34.206Z,0.80
2019-01-28T00:12:04.837Z,0.70
2019-01-28T00:14:35.282Z,0.60
2019-01-28T00:17:05.863Z,0.63
2019-01-28T00:19:36.402Z,0.50
2019-01-28T00:22:07.077Z,0.60
2019-01-28T00:24:37.603Z,0.67
2019-01-28T00:27:08.095Z,0.70
2019-01-28T00:29:38.568Z,0.70
2019-01-28T00:32:09.070Z,0.70
2019-01-28T00:34:39.699Z,0.77
2019-01-28T00:37:10.154Z,0.80
2019-01-28T00:39:40.666Z,0.80
2019-01-28T00:42:11.401Z,0.73
2019-01-28T00:44:41.842Z,0.83
2019-01-28T00:47:12.270Z,1.10
2019-01-28T00:49:42.704Z,0.83
2019-01-28T00:52:13.166Z,0.87
2019-01-28T00:54:43.710Z,1.00
2019-01-28T00:57:14.157Z,1.03
2019-01-28T00:59:44.705Z,0.80
2019-01-28T01:02:15.242Z,0.90
2019-01-28T01:04:45.734Z,0.90
2019-01-28T01:07:17.677Z,0.97
2019-01-28T01:09:49.127Z,0.83
2019-01-28T01:12:19.760Z,1.00
2019-01-28T01:14:50.269Z,1.00
2019-01-28T01:17:20.758Z,0.97
2019-01-28T01:19:51.205Z,0.83
2019-01-28T01:22:21.698Z,0.97
2019-01-28T01:24:52.141Z,0.70
2019-01-28T01:27:22.667Z,0.80
2019-01-28T01:29:54.800Z,0.60
2019-01-28T01:32:25.303Z,1.00
2019-01-28T01:34:55.739Z,0.93
2019-01-28T01:37:26.242Z,0.80
2019-01-28T01:39:56.768Z,0.80
2019-01-28T01:42:27.518Z,0.70
2019-01-28T01:44:57.962Z,0.90
2019-01-28T01:47:28.426Z,0.90
2019-01-28T01:49:58.873Z,0.90
2019-01-28T01:52:29.335Z,1.00
2019-01-28T01:54:59.794Z,1.10
2019-01-28T01:57:30.331Z,0.80
2019-01-28T02:00:00.897Z,0.73
2019-01-28T02:02:33.390Z,0.77
2019-01-28T02:05:03.722Z,1.10
2019-01-28T02:07:34.213Z,1.27
2019-01-28T02:10:06.409Z,1.33
2019-01-28T02:12:36.874Z,1.30
2019-01-28T02:15:09.504Z,1.30
2019-01-28T02:17:40.010Z,1.63
2019-01-28T02:20:10.477Z,1.23
2019-01-28T02:22:41.329Z,1.20
2019-01-28T02:25:12.674Z,1.00
2019-01-28T02:27:43.125Z,1.10
2019-01-28T02:30:15.547Z,1.03
2019-01-28T02:32:46.080Z,1.10
2019-01-28T02:35:16.643Z,1.33
2019-01-28T02:37:47.120Z,1.20
2019-01-28T02:40:18.192Z,1.10
2019-01-28T02:42:48.623Z,1.20
2019-01-28T02:45:19.079Z,1.20
2019-01-28T02:47:50.335Z,1.50
2019-01-28T02:50:20.786Z,1.20
2019-01-28T02:52:51.382Z,1.00
2019-01-28T02:55:21.843Z,1.20
2019-01-28T02:57:52.285Z,1.30
2019-01-28T03:00:23.538Z,1.27
2019-01-28T03:02:54.046Z,1.10
2019-01-28T03:05:24.622Z,1.20
2019-01-28T03:07:55.090Z,1.40
2019-01-28T03:10:25.537Z,1.47
2019-01-28T03:12:55.986Z,1.20
2019-01-28T03:15:26.446Z,1.30
2019-01-28T03:17:56.922Z,1.27
2019-01-28T03:20:27.357Z,1.30
2019-01-28T03:22:57.805Z,1.53
2019-01-28T03:25:28.375Z,1.30
2019-01-28T03:27:58.838Z,1.13
2019-01-28T03:30:29.294Z,1.40
2019-01-28T03:32:59.766Z,1.33
2019-01-28T03:35:30.473Z,1.57
2019-01-28T03:38:00.916Z,1.40
2019-01-28T03:40:31.443Z,1.37
2019-01-28T03:43:01.928Z,1.40
2019-01-28T03:45:32.378Z,1.13
2019-01-28T03:48:02.839Z,1.20
2019-01-28T03:50:33.281Z,1.30
2019-01-28T03:53:03.935Z,1.20
2019-01-28T03:55:34.416Z,1.33
2019-01-28T03:58:05.200Z,1.03
2019-01-28T04:00:35.658Z,0.90
2019-01-28T04:03:06.131Z,1.10
2019-01-28T04:05:36.602Z,0.97
2019-01-28T04:08:07.106Z,1.30
2019-01-28T04:10:37.581Z,0.97
2019-01-28T04:13:08.053Z,1.00
2019-01-28T04:15:38.621Z,0.97
2019-01-28T04:18:09.069Z,1.03
2019-01-28T04:20:39.518Z,1.07
2019-01-28T04:23:09.955Z,1.27
2019-01-28T04:25:40.393Z,1.20
2019-01-28T04:28:10.871Z,0.80
2019-01-28T04:30:41.459Z,1.10
2019-01-28T04:33:11.930Z,0.77
2019-01-28T04:35:42.366Z,0.87
2019-01-28T04:38:12.823Z,0.73
2019-01-28T04:40:43.323Z,1.10
2019-01-28T04:43:13.774Z,0.97
2019-01-28T04:45:44.250Z,0.90
2019-01-28T04:48:14.974Z,0.90
2019-01-28T04:50:45.422Z,1.30
2019-01-28T04:53:15.850Z,0.80
2019-01-28T04:55:46.368Z,0.90
2019-01-28T04:58:16.808Z,0.93
2019-01-28T05:00:48.264Z,0.77
2019-01-28T05:03:18.882Z,0.70
2019-01-28T05:05:49.309Z,1.10
2019-01-28T05:08:19.780Z,0.90
2019-01-28T05:10:50.241Z,0.90
2019-01-28T05:13:20.708Z,1.10
2019-01-28T05:15:51.166Z,0.70
2019-01-28T05:18:21.653Z,1.13
2019-01-28T05:20:52.127Z,1.20
2019-01-28T05:23:22.631Z,1.00
2019-01-28T05:25:53.175Z,0.83
2019-01-28T05:28:23.633Z,0.90
2019-01-28T05:30:54.061Z,0.90
2019-01-28T05:33:24.506Z,1.20
2019-01-28T05:35:54.955Z,0.90
2019-01-28T05:38:25.965Z,0.90
2019-01-28T05:40:56.799Z,1.10
2019-01-28T05:43:27.256Z,0.87
2019-01-28T05:45:57.705Z,1.17
2019-01-28T05:48:28.426Z,0.90
2019-01-28T05:50:58.885Z,0.93
2019-01-28T05:53:29.362Z,1.30
2019-01-28T05:55:59.853Z,0.82
2019-01-28T05:58:30.589Z,1.20
2019-01-28T06:01:01.303Z,1.00
2019-01-28T06:03:31.735Z,1.50
2019-01-28T06:06:02.203Z,1.13
2019-01-28T06:08:32.644Z,1.00
2019-01-28T06:11:03.140Z,1.50
2019-01-28T06:13:33.567Z,1.03
2019-01-28T06:16:04.145Z,1.30
2019-01-28T06:18:34.619Z,1.30
2019-01-28T06:21:05.059Z,1.10
2019-01-28T06:23:35.544Z,1.33
2019-01-28T06:26:05.994Z,1.27
2019-01-28T06:28:36.514Z,1.20
2019-01-28T06:31:06.999Z,1.40
2019-01-28T06:33:37.458Z,1.20
2019-01-28T06:36:07.892Z,1.00
2019-01-28T06:38:38.369Z,1.17
2019-01-28T06:41:08.805Z,1.20
2019-01-28T06:43:39.313Z,1.20
2019-01-28T06:46:09.837Z,1.30
2019-01-28T06:48:40.306Z,1.23
2019-01-28T06:51:10.899Z,1.30
2019-01-28T06:53:41.697Z,1.33
2019-01-28T06:56:12.141Z,1.30
2019-01-28T06:58:42.581Z,1.17
2019-01-28T07:01:13.042Z,1.20
2019-01-28T07:03:43.494Z,1.40
2019-01-28T07:06:13.929Z,1.60
2019-01-28T07:08:44.404Z,1.93
2019-01-28T07:11:15.202Z,1.30
2019-01-28T07:13:45.646Z,1.30
2019-01-28T07:16:16.599Z,1.40
2019-01-28T07:18:47.194Z,1.67
2019-01-28T07:21:17.678Z,1.53
2019-01-28T07:23:48.127Z,1.50
2019-01-28T07:26:18.654Z,1.50
2019-01-28T07:28:49.119Z,1.50
2019-01-28T07:31:19.594Z,1.20
2019-01-28T07:33:50.074Z,1.50
2019-01-28T07:36:20.521Z,1.70
2019-01-28T07:38:51.074Z,1.20
2019-01-28T07:41:21.538Z,1.50
2019-01-28T07:43:52.290Z,1.63
2019-01-28T07:46:26.701Z,1.50
2019-01-28T07:48:57.504Z,1.77
2019-01-28T07:51:27.987Z,1.53
2019-01-28T07:53:58.441Z,1.77
2019-01-28T07:56:28.873Z,1.40
2019-01-28T07:58:59.574Z,1.83
2019-01-28T08:01:30.096Z,1.57
2019-01-28T08:04:00.542Z,1.77
2019-01-28T08:06:31.019Z,1.40
2019-01-28T08:09:01.767Z,1.60
2019-01-28T08:11:33.831Z,1.70
2019-01-28T08:14:04.938Z,1.57
2019-01-28T08:16:35.380Z,1.60
2019-01-28T08:19:05.831Z,1.53
2019-01-28T08:21:36.279Z,1.73
2019-01-28T08:24:06.725Z,1.80
2019-01-28T08:26:37.178Z,1.60
2019-01-28T08:29:07.624Z,1.50
2019-01-28T08:31:38.085Z,2.07
2019-01-28T08:34:08.534Z,1.67
2019-01-28T08:36:38.991Z,1.63
2019-01-28T08:39:10.026Z,1.60
2019-01-28T08:41:40.498Z,1.73
2019-01-28T08:44:11.038Z,1.90
2019-01-28T08:46:41.521Z,1.63
2019-01-28T08:49:12.298Z,1.40
2019-01-28T08:51:42.754Z,1.97
2019-01-28T08:54:13.222Z,1.67
2019-01-28T08:56:43.668Z,1.30
2019-01-28T08:59:14.148Z,1.83
2019-01-28T09:01:44.610Z,1.73
2019-01-28T09:04:15.090Z,2.43
2019-01-28T09:06:45.520Z,1.33
2019-01-28T09:09:15.980Z,1.70
2019-01-28T09:11:46.459Z,1.43
2019-01-28T09:14:16.894Z,1.40
2019-01-28T09:16:47.354Z,1.57
2019-01-28T09:19:29.139Z,2.03
2019-01-28T09:22:00.895Z,2.47
2019-01-28T09:24:31.330Z,1.63
2019-01-28T09:27:01.789Z,1.77
2019-01-28T09:29:32.254Z,1.80
2019-01-28T09:32:02.696Z,1.90
2019-01-28T09:34:33.427Z,2.07
2019-01-28T09:37:04.070Z,1.80
2019-01-28T09:39:34.823Z,1.60
2019-01-28T09:42:05.752Z,1.67
2019-01-28T09:44:36.211Z,1.90
2019-01-28T09:47:06.654Z,1.90
2019-01-28T09:49:37.267Z,1.77
2019-01-28T09:52:07.949Z,1.73
2019-01-28T09:54:38.421Z,1.60
2019-01-28T09:57:08.846Z,1.63
2019-01-28T09:59:40.342Z,1.60
2019-01-28T10:02:10.873Z,1.40
2019-01-28T10:04:41.356Z,1.80
2019-01-28T10:07:11.828Z,1.33
2019-01-28T10:09:42.291Z,1.47
2019-01-28T10:12:12.759Z,1.90
2019-01-28T10:14:43.227Z,1.63
2019-01-28T10:17:13.743Z,1.50
2019-01-28T10:19:44.220Z,1.80
2019-01-28T10:22:14.675Z,2.47
2019-01-28T10:24:45.122Z,1.50
2019-01-28T10:27:15.682Z,1.50
2019-01-28T10:29:46.177Z,1.50
2019-01-28T10:32:16.636Z,1.60
2019-01-28T10:34:47.116Z,1.73
2019-01-28T10:37:17.594Z,1.67
2019-01-28T10:39:48.066Z,2.10
2019-01-28T10:42:18.921Z,2.00
2019-01-28T10:44:49.457Z,2.23
2019-01-28T10:47:19.898Z,2.03
2019-01-28T10:49:50.379Z,2.10
2019-01-28T10:52:22.425Z,1.87
2019-01-28T10:54:53.365Z,1.67
2019-01-28T10:57:23.806Z,1.30
2019-01-28T10:59:54.620Z,1.93
2019-01-28T11:02:25.078Z,1.97
2019-01-28T11:04:55.626Z,1.73
2019-01-28T11:07:26.087Z,1.80
2019-01-28T11:09:56.806Z,1.70
2019-01-28T11:12:27.376Z,1.90
2019-01-28T11:14:57.918Z,1.80
2019-01-28T11:17:28.369Z,2.00
2019-01-28T11:19:58.855Z,1.73
2019-01-28T11:22:29.357Z,1.70
2019-01-28T11:25:01.485Z,2.20
2019-01-28T11:27:32.049Z,1.80
2019-01-28T11:30:02.674Z,1.90
2019-01-28T11:32:33.300Z,2.10
2019-01-28T11:35:04.487Z,2.33
2019-01-28T11:37:34.932Z,2.00
2019-01-28T11:40:24.774Z,1.53
2019-01-28T11:42:55.379Z,1.73
2019-01-28T11:45:28.629Z,1.23
2019-01-28T11:48:00.177Z,2.57
2019-01-28T11:50:30.685Z,2.43
2019-01-28T11:53:01.136Z,1.37
2019-01-28T11:55:31.611Z,2.13
2019-01-28T11:58:02.351Z,1.77
2019-01-28T12:00:39.817Z,1.60
2019-01-28T12:03:10.283Z,1.77
2019-01-28T12:05:40.735Z,1.23
2019-01-28T12:08:11.178Z,1.82
2019-01-28T12:10:41.678Z,1.57
2019-01-28T12:13:12.140Z,1.50
2019-01-28T12:15:42.619Z,1.80
2019-01-28T12:18:13.098Z,1.37
2019-01-28T12:20:44.728Z,1.67
2019-01-28T12:23:16.278Z,1.63
2019-01-28T12:25:48.500Z,1.93
2019-01-28T12:28:19.359Z,2.00
2019-01-28T12:30:51.114Z,1.73
2019-01-28T12:33:21.616Z,1.67
2019-01-28T12:35:52.111Z,1.40
2019-01-28T12:38:22.662Z,1.43
2019-01-28T12:40:53.208Z,1.90
2019-01-28T12:43:23.674Z,1.77
2019-01-28T12:45:54.119Z,1.60
2019-01-28T12:48:24.599Z,1.70
2019-01-28T12:50:55.070Z,1.70
2019-01-28T12:53:25.554Z,1.50
2019-01-28T12:55:56.438Z,1.40
2019-01-28T12:58:26.907Z,1.50
2019-01-28T13:01:04.462Z,2.30
2019-01-28T13:03:34.930Z,1.77
2019-01-28T13:06:05.682Z,1.53
2019-01-28T13:08:36.193Z,1.80
2019-01-28T13:11:06.677Z,1.80
2019-01-28T13:13:41.149Z,1.50
2019-01-28T13:16:10.781Z,1.55
2019-01-28T13:18:41.262Z,1.20
2019-01-28T13:21:11.765Z,1.30
2019-01-28T13:23:43.028Z,1.90
2019-01-28T13:26:13.563Z,1.50
2019-01-28T13:28:44.043Z,1.83
2019-01-28T13:31:14.791Z,1.60
2019-01-28T13:33:46.031Z,1.73
2019-01-28T13:36:16.516Z,1.97
2019-01-28T13:38:46.999Z,1.47
2019-01-28T13:41:17.828Z,1.43
2019-01-28T13:43:48.653Z,1.70
2019-01-28T13:46:19.139Z,2.00
2019-01-28T13:48:49.604Z,1.47
2019-01-28T13:51:20.097Z,1.40
2019-01-28T13:53:50.566Z,1.93
2019-01-28T13:56:21.355Z,1.73
2019-01-28T13:58:51.795Z,1.70
2019-01-28T14:01:22.278Z,1.70
2019-01-28T14:03:52.935Z,1.70
2019-01-28T14:06:23.394Z,1.70
2019-01-28T14:08:53.859Z,2.03
2019-01-28T14:11:24.330Z,1.90
2019-01-28T14:13:54.876Z,1.50
2019-01-28T14:16:25.411Z,1.50
2019-01-28T14:18:55.931Z,1.70
2019-01-28T14:21:26.696Z,1.50
2019-01-28T14:23:57.187Z,1.93
2019-01-28T14:26:27.668Z,1.33
2019-01-28T14:28:58.132Z,1.70
2019-01-28T14:31:28.656Z,1.83
2019-01-28T14:33:59.235Z,1.50
2019-01-28T14:39:02.230Z,1.50
2019-01-28T14:41:32.804Z,1.87
2019-01-28T14:44:03.276Z,1.73
2019-01-28T14:46:33.741Z,1.60
2019-01-28T14:49:04.295Z,2.00
2019-01-28T14:51:35.773Z,1.70
2019-01-28T14:54:06.532Z,1.80
2019-01-28T14:56:37.006Z,1.57
2019-01-28T14:59:07.500Z,1.60
2019-01-28T15:01:38.071Z,1.70
2019-01-28T15:04:09.895Z,1.80
2019-01-28T15:06:40.688Z,1.50
2019-01-28T15:09:12.276Z,1.40
2019-01-28T15:11:44.492Z,1.30
2019-01-28T15:14:14.975Z,1.50
2019-01-28T15:16:45.482Z,1.77
2019-01-28T15:19:15.964Z,1.33
2019-01-28T15:21:46.574Z,2.03
2019-01-28T15:24:17.075Z,1.60
2019-01-28T15:26:47.618Z,2.00
2019-01-28T15:29:18.215Z,1.93
2019-01-28T15:31:49.106Z,2.03
2019-01-28T15:34:19.582Z,2.27
2019-01-28T15:36:50.104Z,2.33
2019-01-28T15:39:20.636Z,3.20
2019-01-28T15:41:51.253Z,1.87
2019-01-28T15:44:21.720Z,2.10
2019-01-28T15:46:52.212Z,1.60
2019-01-28T15:49:22.675Z,2.80
2019-01-28T15:51:53.135Z,1.77
2019-01-28T15:54:35.011Z,1.70
2019-01-28T15:57:05.575Z,1.80
2019-01-28T15:59:36.052Z,1.70
2019-01-28T16:02:06.859Z,2.27
2019-01-28T16:04:37.360Z,2.17
2019-01-28T16:07:07.862Z,1.60
2019-01-28T16:09:38.358Z,2.07
2019-01-28T16:12:08.859Z,1.35
2019-01-28T16:14:39.389Z,1.70
2019-01-28T16:17:10.293Z,1.73
2019-01-28T16:19:40.739Z,1.70
2019-01-28T16:22:11.528Z,1.60
2019-01-28T16:24:41.271Z,1.80
2019-01-28T16:27:11.909Z,2.43
2019-01-28T16:29:42.411Z,1.90
2019-01-28T16:32:12.892Z,2.17
2019-01-28T16:34:43.453Z,1.67
2019-01-28T16:37:13.999Z,2.10
2019-01-28T16:39:44.812Z,1.80
2019-01-28T16:42:15.383Z,2.00
2019-01-28T16:44:45.867Z,2.17
2019-01-28T16:47:16.431Z,2.07
2019-01-28T16:49:46.989Z,1.67
2019-01-28T16:52:17.492Z,2.33
2019-01-28T16:54:48.035Z,2.50
2019-01-28T16:57:18.516Z,1.60
2019-01-28T16:59:48.981Z,1.90
2019-01-28T17:02:19.487Z,2.00
2019-01-28T17:04:50.008Z,2.27
2019-01-28T17:07:20.642Z,2.50
2019-01-28T17:09:51.129Z,2.83
2019-01-28T17:12:21.591Z,2.23
2019-01-28T17:14:52.083Z,2.03
2019-01-28T17:17:22.556Z,2.53
2019-01-28T17:19:53.034Z,2.10
2019-01-28T17:22:23.582Z,2.07
2019-01-28T17:49:31.595Z,2.75
2019-01-28T17:52:02.176Z,2.70
2019-01-28T17:54:32.667Z,2.70
2019-01-28T17:57:03.160Z,2.50
2019-01-28T17:59:33.651Z,2.70
2019-01-28T18:02:04.116Z,2.80
2019-01-28T18:04:34.591Z,2.50
2019-01-28T18:07:05.483Z,2.10
2019-01-28T18:09:35.942Z,2.30
2019-01-28T18:12:06.401Z,2.10
2019-01-28T18:14:36.871Z,2.40
2019-01-28T18:17:07.357Z,2.10
2019-01-28T18:19:37.816Z,2.10
2019-01-28T18:22:09.074Z,1.90
2019-01-28T18:24:39.546Z,1.90
2019-01-28T18:27:10.014Z,2.00
2019-01-28T18:29:40.552Z,2.33
2019-01-28T18:32:11.097Z,2.27
2019-01-28T18:34:41.624Z,2.00
2019-01-28T18:37:12.174Z,2.30
2019-01-28T18:39:42.633Z,2.10
2019-01-28T18:42:13.099Z,2.10
2019-01-28T18:44:43.845Z,2.53
2019-01-28T18:47:15.163Z,2.20
2019-01-28T18:49:45.786Z,2.60
2019-01-28T18:52:16.259Z,2.60
2019-01-28T18:54:46.724Z,2.73
2019-01-28T18:57:18.816Z,2.67
2019-01-28T19:00:11.528Z,2.70
2019-01-28T19:02:42.026Z,2.63
2019-01-28T19:05:18.461Z,2.80
2019-01-28T19:07:53.537Z,2.50
2019-01-28T19:10:32.544Z,2.40
2019-01-28T19:13:22.098Z,2.20
2019-01-28T19:16:10.539Z,2.50
2019-01-28T19:19:03.416Z,2.47
2019-01-28T19:21:39.048Z,3.00
2019-01-28T19:24:09.868Z,2.90
2019-01-28T19:26:42.485Z,2.90
2019-01-28T19:29:12.969Z,3.47
2019-01-28T19:31:43.496Z,2.90
2019-01-28T19:34:14.090Z,3.00
2019-01-28T19:36:44.581Z,3.27
2019-01-28T19:46:42.969Z,3.07
2019-01-28T19:49:13.458Z,3.47
2019-01-28T19:51:44.880Z,2.80
2019-01-28T19:54:15.336Z,2.80
2019-01-28T19:56:45.981Z,3.40
2019-01-28T19:59:16.531Z,2.90
2019-01-28T20:01:47.081Z,3.00
2019-01-28T20:04:17.562Z,3.43
2019-01-28T20:06:48.584Z,3.10
2019-01-28T20:09:20.663Z,3.00
2019-01-28T20:11:51.285Z,3.50
2019-01-28T20:14:21.746Z,3.20
2019-01-28T20:16:53.362Z,3.17
2019-01-28T20:19:43.248Z,3.57
2019-01-28T20:22:13.711Z,3.10
2019-01-28T20:24:44.632Z,3.30
2019-01-28T20:27:15.199Z,3.70
2019-01-28T20:29:45.644Z,3.30
2019-01-28T20:32:17.250Z,3.30
2019-01-28T20:34:48.783Z,3.37
2019-01-28T20:37:19.800Z,3.50
2019-01-28T20:39:50.419Z,3.50
2019-01-28T20:42:20.868Z,3.80
2019-01-28T20:44:51.346Z,3.10
2019-01-28T20:47:21.854Z,3.80
2019-01-28T20:49:52.324Z,3.80
2019-01-28T20:52:22.816Z,3.67
2019-01-28T20:54:53.318Z,3.57
2019-01-28T20:57:23.799Z,3.73
2019-01-28T20:59:54.265Z,3.77
2019-01-28T21:02:24.851Z,3.60
2019-01-28T21:04:55.355Z,3.87
2019-01-28T21:07:25.914Z,3.93
2019-01-28T21:09:56.430Z,3.50
2019-01-28T21:12:26.904Z,3.83
2019-01-28T21:14:57.723Z,3.77
2019-01-28T21:17:28.248Z,3.80
2019-01-28T21:19:58.763Z,3.40
2019-01-28T21:22:29.278Z,3.27
2019-01-28T21:24:59.762Z,3.33
2019-01-28T21:27:30.374Z,3.80
2019-01-28T21:30:00.995Z,3.50
2019-01-28T21:32:31.503Z,4.20
2019-01-28T21:35:02.379Z,3.97
2019-01-28T21:37:35.350Z,3.73
2019-01-28T21:40:07.376Z,3.30
2019-01-28T21:42:39.409Z,3.60
2019-01-28T21:45:10.813Z,3.90
2019-01-28T21:47:53.512Z,3.90
2019-01-28T21:50:25.543Z,3.80
2019-01-28T21:52:56.094Z,4.10
2019-01-28T21:55:26.636Z,3.70
2019-01-28T21:57:57.144Z,3.60
2019-01-28T22:00:30.089Z,3.80
2019-01-28T22:03:00.267Z,3.60
2019-01-28T22:05:32.427Z,3.60
2019-01-28T22:08:03.077Z,3.97
2019-01-28T22:10:33.528Z,3.90
2019-01-28T22:13:05.081Z,4.37
2019-01-28T22:15:35.597Z,3.93
2019-01-28T22:18:06.053Z,3.37
2019-01-28T22:20:36.511Z,3.70
2019-01-28T22:23:06.943Z,3.80
2019-01-28T22:25:37.689Z,3.93
2019-01-28T22:28:08.275Z,3.27
2019-01-28T22:30:39.902Z,3.20
2019-01-28T22:33:10.336Z,3.10
2019-01-28T22:35:40.813Z,3.23
2019-01-28T22:38:11.355Z,3.70
2019-01-28T22:40:41.805Z,3.67
2019-01-28T22:43:12.265Z,3.47
2019-01-28T22:45:42.899Z,3.33
2019-01-28T22:48:13.362Z,3.60
2019-01-28T22:50:44.215Z,3.23
2019-01-28T22:53:14.658Z,3.30
2019-01-28T22:55:45.143Z,3.03
2019-01-28T22:58:15.610Z,3.23
2019-01-28T23:00:53.810Z,3.30
2019-01-28T23:03:26.730Z,3.70
2019-01-28T23:05:58.155Z,3.27
2019-01-28T23:08:28.706Z,3.53
2019-01-28T23:10:59.556Z,3.67
2019-01-28T23:13:30.041Z,3.37
2019-01-28T23:16:00.519Z,3.50
2019-01-28T23:18:30.990Z,3.20
2019-01-28T23:21:01.457Z,3.50
2019-01-28T23:23:31.904Z,3.20
2019-01-28T23:26:02.359Z,3.50
2019-01-28T23:28:32.815Z,2.90
2019-01-28T23:31:03.287Z,3.67
2019-01-28T23:33:33.744Z,3.73
2019-01-28T23:36:04.878Z,3.30
2019-01-28T23:38:36.387Z,3.60
2019-01-28T23:41:07.814Z,3.30
2019-01-28T23:43:38.610Z,3.90
2019-01-28T23:46:09.384Z,4.27
2019-01-28T23:48:39.850Z,3.80
2019-01-28T23:51:10.306Z,4.20
2019-01-28T23:53:40.756Z,3.83
2019-01-28T23:56:11.215Z,3.90
2019-01-28T23:58:41.674Z,4.47
